Terminal Aerodrome Forecast
Issued by NWS Charleston, WV

Current Version | Previous Version | Text Only | Print | Product List | Glossary Off
Versions: 1 2 3 4 5 6 7 8 9 10 11 12 13 14 15 16 17 18 19

000
FTUS41 KRLX 271500 AAA
TAFCRW
TAF AMD
KCRW 271513Z 2715/2812 00000KT P6SM BKN080
     FM280600 VRB03KT 5SM BR OVC030
     FM280800 23004KT 4SM -RA BR OVC010
     FM281100 VRB03KT 2SM -RA BR OVC008=

USA.gov is the U.S. government's official web portal to all federal, state and local government web resources and services.